sensor_id;sensor_type;location;lat;lon;timestamp;P1;durP1;ratioP1;P2;durP2;ratioP2
30173;SDS011;16985;50.814;8.530;2023-02-04T00:01:13;16.85;;;4.45;;
30173;SDS011;16985;50.814;8.530;2023-02-04T00:03:39;18.02;;;4.30;;
30173;SDS011;16985;50.814;8.530;2023-02-04T00:06:06;18.70;;;5.60;;
30173;SDS011;16985;50.814;8.530;2023-02-04T00:08:35;21.00;;;3.80;;
30173;SDS011;16985;50.814;8.530;2023-02-04T00:11:02;16.27;;;3.38;;
30173;SDS011;16985;50.814;8.530;2023-02-04T00:13:31;22.80;;;5.75;;
30173;SDS011;16985;50.814;8.530;2023-02-04T00:15:56;22.40;;;3.88;;
30173;SDS011;16985;50.814;8.530;2023-02-04T00:18:23;21.70;;;4.50;;
30173;SDS011;16985;50.814;8.530;2023-02-04T00:20:51;25.42;;;4.10;;
30173;SDS011;16985;50.814;8.530;2023-02-04T00:23:17;16.23;;;3.42;;
30173;SDS011;16985;50.814;8.530;2023-02-04T00:25:44;20.95;;;3.92;;
30173;SDS011;16985;50.814;8.530;2023-02-04T00:28:10;24.85;;;4.55;;
30173;SDS011;16985;50.814;8.530;2023-02-04T00:30:36;19.58;;;3.70;;
30173;SDS011;16985;50.814;8.530;2023-02-04T00:33:02;33.75;;;5.32;;
30173;SDS011;16985;50.814;8.530;2023-02-04T00:35:28;26.92;;;3.95;;
30173;SDS011;16985;50.814;8.530;2023-02-04T00:37:54;26.52;;;5.32;;
30173;SDS011;16985;50.814;8.530;2023-02-04T00:40:20;24.98;;;4.50;;
30173;SDS011;16985;50.814;8.530;2023-02-04T00:42:46;29.67;;;3.80;;
30173;SDS011;16985;50.814;8.530;2023-02-04T00:45:12;17.58;;;4.25;;
30173;SDS011;16985;50.814;8.530;2023-02-04T00:47:39;20.00;;;3.85;;
30173;SDS011;16985;50.814;8.530;2023-02-04T00:50:05;18.67;;;4.63;;
30173;SDS011;16985;50.814;8.530;2023-02-04T00:52:31;20.48;;;5.10;;
30173;SDS011;16985;50.814;8.530;2023-02-04T00:54:57;30.85;;;6.85;;
30173;SDS011;16985;50.814;8.530;2023-02-04T00:57:23;31.20;;;4.32;;
30173;SDS011;16985;50.814;8.530;2023-02-04T00:59:49;22.88;;;4.82;;
30173;SDS011;16985;50.814;8.530;2023-02-04T01:02:15;21.90;;;4.45;;
30173;SDS011;16985;50.814;8.530;2023-02-04T01:04:41;30.23;;;4.82;;
30173;SDS011;16985;50.814;8.530;2023-02-04T01:07:07;30.17;;;4.25;;
30173;SDS011;16985;50.814;8.530;2023-02-04T01:09:34;29.35;;;5.72;;
30173;SDS011;16985;50.814;8.530;2023-02-04T01:12:00;19.80;;;4.75;;
30173;SDS011;16985;50.814;8.530;2023-02-04T01:14:26;30.10;;;4.18;;
30173;SDS011;16985;50.814;8.530;2023-02-04T01:16:52;31.38;;;6.05;;
30173;SDS011;16985;50.814;8.530;2023-02-04T01:19:18;21.20;;;3.90;;
30173;SDS011;16985;50.814;8.530;2023-02-04T01:21:45;21.90;;;4.40;;
30173;SDS011;16985;50.814;8.530;2023-02-04T01:24:11;23.63;;;5.55;;
30173;SDS011;16985;50.814;8.530;2023-02-04T01:26:57;15.98;;;3.70;;
30173;SDS011;16985;50.814;8.530;2023-02-04T01:29:23;21.75;;;4.22;;
30173;SDS011;16985;50.814;8.530;2023-02-04T01:31:49;25.55;;;5.65;;
30173;SDS011;16985;50.814;8.530;2023-02-04T01:34:15;24.45;;;4.85;;
30173;SDS011;16985;50.814;8.530;2023-02-04T01:36:42;20.33;;;4.00;;
30173;SDS011;16985;50.814;8.530;2023-02-04T01:39:08;23.40;;;3.67;;
30173;SDS011;16985;50.814;8.530;2023-02-04T01:41:34;19.45;;;4.85;;
30173;SDS011;16985;50.814;8.530;2023-02-04T01:44:00;25.50;;;4.57;;
30173;SDS011;16985;50.814;8.530;2023-02-04T01:46:26;27.88;;;4.32;;
30173;SDS011;16985;50.814;8.530;2023-02-04T01:48:53;25.67;;;4.07;;
30173;SDS011;16985;50.814;8.530;2023-02-04T01:51:21;26.98;;;4.78;;
30173;SDS011;16985;50.814;8.530;2023-02-04T01:53:52;31.17;;;4.50;;
30173;SDS011;16985;50.814;8.530;2023-02-04T01:56:23;20.70;;;4.10;;
30173;SDS011;16985;50.814;8.530;2023-02-04T01:58:51;20.60;;;4.75;;
30173;SDS011;16985;50.814;8.530;2023-02-04T02:01:38;23.77;;;5.13;;
30173;SDS011;16985;50.814;8.530;2023-02-04T02:04:11;23.20;;;4.97;;
30173;SDS011;16985;50.814;8.530;2023-02-04T02:07:02;25.27;;;4.95;;
30173;SDS011;16985;50.814;8.530;2023-02-04T02:09:29;22.10;;;4.80;;
30173;SDS011;16985;50.814;8.530;2023-02-04T02:11:56;22.92;;;4.95;;
30173;SDS011;16985;50.814;8.530;2023-02-04T02:14:24;25.48;;;4.63;;
30173;SDS011;16985;50.814;8.530;2023-02-04T02:16:50;29.25;;;4.13;;
30173;SDS011;16985;50.814;8.530;2023-02-04T02:19:19;28.30;;;4.85;;
30173;SDS011;16985;50.814;8.530;2023-02-04T02:21:54;22.15;;;3.40;;
30173;SDS011;16985;50.814;8.530;2023-02-04T02:24:31;26.55;;;5.07;;
30173;SDS011;16985;50.814;8.530;2023-02-04T02:27:00;21.38;;;3.83;;
30173;SDS011;16985;50.814;8.530;2023-02-04T02:29:31;26.63;;;5.00;;
30173;SDS011;16985;50.814;8.530;2023-02-04T02:31:57;19.02;;;3.80;;
30173;SDS011;16985;50.814;8.530;2023-02-04T02:34:27;24.65;;;4.40;;
30173;SDS011;16985;50.814;8.530;2023-02-04T02:36:54;24.77;;;4.10;;
30173;SDS011;16985;50.814;8.530;2023-02-04T02:39:22;34.97;;;6.68;;
30173;SDS011;16985;50.814;8.530;2023-02-04T02:41:48;33.92;;;4.57;;
30173;SDS011;16985;50.814;8.530;2023-02-04T02:44:14;30.23;;;5.45;;
30173;SDS011;16985;50.814;8.530;2023-02-04T02:46:41;37.35;;;5.85;;
30173;SDS011;16985;50.814;8.530;2023-02-04T02:49:09;37.83;;;6.03;;
30173;SDS011;16985;50.814;8.530;2023-02-04T02:51:41;21.10;;;4.20;;
30173;SDS011;16985;50.814;8.530;2023-02-04T02:54:12;27.88;;;4.90;;
30173;SDS011;16985;50.814;8.530;2023-02-04T02:56:57;21.95;;;4.25;;
30173;SDS011;16985;50.814;8.530;2023-02-04T02:59:24;30.80;;;4.45;;
30173;SDS011;16985;50.814;8.530;2023-02-04T03:01:51;26.40;;;4.43;;
30173;SDS011;16985;50.814;8.530;2023-02-04T03:04:25;21.45;;;3.83;;
30173;SDS011;16985;50.814;8.530;2023-02-04T03:06:52;27.80;;;3.97;;
30173;SDS011;16985;50.814;8.530;2023-02-04T03:09:20;31.65;;;4.15;;
30173;SDS011;16985;50.814;8.530;2023-02-04T03:11:50;34.20;;;4.93;;
30173;SDS011;16985;50.814;8.530;2023-02-04T03:14:17;24.38;;;3.78;;
30173;SDS011;16985;50.814;8.530;2023-02-04T03:16:43;25.67;;;6.03;;
30173;SDS011;16985;50.814;8.530;2023-02-04T03:19:09;34.85;;;5.55;;
30173;SDS011;16985;50.814;8.530;2023-02-04T03:21:36;27.98;;;5.10;;
30173;SDS011;16985;50.814;8.530;2023-02-04T03:24:02;28.33;;;4.90;;
30173;SDS011;16985;50.814;8.530;2023-02-04T03:26:29;20.77;;;4.28;;
30173;SDS011;16985;50.814;8.530;2023-02-04T03:28:55;23.00;;;4.75;;
30173;SDS011;16985;50.814;8.530;2023-02-04T03:31:22;29.42;;;5.40;;
30173;SDS011;16985;50.814;8.530;2023-02-04T03:33:48;27.77;;;7.57;;
30173;SDS011;16985;50.814;8.530;2023-02-04T03:36:14;23.25;;;6.45;;
30173;SDS011;16985;50.814;8.530;2023-02-04T03:38:40;29.23;;;4.43;;
30173;SDS011;16985;50.814;8.530;2023-02-04T03:41:06;21.23;;;4.43;;
30173;SDS011;16985;50.814;8.530;2023-02-04T03:43:32;18.35;;;3.70;;
30173;SDS011;16985;50.814;8.530;2023-02-04T03:45:58;22.65;;;4.50;;
30173;SDS011;16985;50.814;8.530;2023-02-04T03:48:24;23.70;;;3.63;;
30173;SDS011;16985;50.814;8.530;2023-02-04T03:50:49;25.65;;;5.00;;
30173;SDS011;16985;50.814;8.530;2023-02-04T03:53:15;18.50;;;4.07;;
30173;SDS011;16985;50.814;8.530;2023-02-04T03:55:41;38.47;;;5.88;;
30173;SDS011;16985;50.814;8.530;2023-02-04T03:58:07;26.35;;;4.65;;
30173;SDS011;16985;50.814;8.530;2023-02-04T04:00:33;26.52;;;5.22;;
30173;SDS011;16985;50.814;8.530;2023-02-04T04:02:59;19.02;;;4.03;;
30173;SDS011;16985;50.814;8.530;2023-02-04T04:05:24;24.10;;;3.60;;
30173;SDS011;16985;50.814;8.530;2023-02-04T04:07:51;30.40;;;4.85;;
30173;SDS011;16985;50.814;8.530;2023-02-04T04:10:17;29.02;;;3.97;;
30173;SDS011;16985;50.814;8.530;2023-02-04T04:12:43;21.20;;;3.95;;
30173;SDS011;16985;50.814;8.530;2023-02-04T04:15:09;27.77;;;3.92;;
30173;SDS011;16985;50.814;8.530;2023-02-04T04:17:35;21.05;;;4.10;;
30173;SDS011;16985;50.814;8.530;2023-02-04T04:20:01;20.58;;;4.15;;
30173;SDS011;16985;50.814;8.530;2023-02-04T04:22:26;20.48;;;3.97;;
30173;SDS011;16985;50.814;8.530;2023-02-04T04:24:53;25.15;;;4.78;;
30173;SDS011;16985;50.814;8.530;2023-02-04T04:27:18;25.98;;;4.50;;
30173;SDS011;16985;50.814;8.530;2023-02-04T04:29:44;18.10;;;4.32;;
30173;SDS011;16985;50.814;8.530;2023-02-04T04:32:10;21.10;;;4.05;;
30173;SDS011;16985;50.814;8.530;2023-02-04T04:34:36;31.63;;;7.03;;
30173;SDS011;16985;50.814;8.530;2023-02-04T04:37:02;18.17;;;3.53;;
30173;SDS011;16985;50.814;8.530;2023-02-04T04:39:27;32.00;;;4.75;;
30173;SDS011;16985;50.814;8.530;2023-02-04T04:41:53;23.30;;;4.43;;
30173;SDS011;16985;50.814;8.530;2023-02-04T04:44:19;26.48;;;4.82;;
30173;SDS011;16985;50.814;8.530;2023-02-04T04:46:45;26.98;;;5.60;;
30173;SDS011;16985;50.814;8.530;2023-02-04T04:49:11;28.67;;;5.32;;
30173;SDS011;16985;50.814;8.530;2023-02-04T04:51:37;30.10;;;6.03;;
30173;SDS011;16985;50.814;8.530;2023-02-04T04:54:02;22.33;;;4.72;;
30173;SDS011;16985;50.814;8.530;2023-02-04T04:56:28;23.52;;;5.05;;
30173;SDS011;16985;50.814;8.530;2023-02-04T04:58:54;14.82;;;4.60;;
30173;SDS011;16985;50.814;8.530;2023-02-04T05:01:20;21.05;;;5.25;;
30173;SDS011;16985;50.814;8.530;2023-02-04T05:03:46;23.08;;;5.18;;
30173;SDS011;16985;50.814;8.530;2023-02-04T05:06:12;23.55;;;4.50;;
30173;SDS011;16985;50.814;8.530;2023-02-04T05:08:39;21.90;;;4.38;;
30173;SDS011;16985;50.814;8.530;2023-02-04T05:11:04;24.88;;;4.78;;
30173;SDS011;16985;50.814;8.530;2023-02-04T05:13:30;33.10;;;4.70;;
30173;SDS011;16985;50.814;8.530;2023-02-04T05:15:56;25.05;;;4.63;;
30173;SDS011;16985;50.814;8.530;2023-02-04T05:18:22;28.23;;;4.70;;
30173;SDS011;16985;50.814;8.530;2023-02-04T05:20:47;27.00;;;5.18;;
30173;SDS011;16985;50.814;8.530;2023-02-04T05:23:13;31.70;;;4.47;;
30173;SDS011;16985;50.814;8.530;2023-02-04T05:25:41;24.63;;;5.13;;
30173;SDS011;16985;50.814;8.530;2023-02-04T05:28:07;17.40;;;4.00;;
30173;SDS011;16985;50.814;8.530;2023-02-04T05:30:32;22.23;;;4.80;;
30173;SDS011;16985;50.814;8.530;2023-02-04T05:32:58;20.17;;;4.38;;
30173;SDS011;16985;50.814;8.530;2023-02-04T05:35:24;25.58;;;4.35;;
30173;SDS011;16985;50.814;8.530;2023-02-04T05:37:50;26.25;;;4.45;;
30173;SDS011;16985;50.814;8.530;2023-02-04T05:40:16;31.58;;;6.00;;
30173;SDS011;16985;50.814;8.530;2023-02-04T05:42:42;34.28;;;5.07;;
30173;SDS011;16985;50.814;8.530;2023-02-04T05:45:12;18.27;;;3.70;;
30173;SDS011;16985;50.814;8.530;2023-02-04T05:47:40;21.88;;;4.30;;
30173;SDS011;16985;50.814;8.530;2023-02-04T05:50:06;23.20;;;4.03;;
30173;SDS011;16985;50.814;8.530;2023-02-04T05:52:33;20.35;;;4.15;;
30173;SDS011;16985;50.814;8.530;2023-02-04T05:54:58;36.65;;;4.63;;
30173;SDS011;16985;50.814;8.530;2023-02-04T05:57:24;14.15;;;4.03;;
30173;SDS011;16985;50.814;8.530;2023-02-04T05:59:50;17.83;;;3.55;;
30173;SDS011;16985;50.814;8.530;2023-02-04T06:02:16;17.25;;;4.00;;
30173;SDS011;16985;50.814;8.530;2023-02-04T06:04:44;19.50;;;4.47;;
30173;SDS011;16985;50.814;8.530;2023-02-04T06:07:10;17.83;;;4.22;;
30173;SDS011;16985;50.814;8.530;2023-02-04T06:09:42;13.10;;;5.60;;
30173;SDS011;16985;50.814;8.530;2023-02-04T06:12:08;21.70;;;4.15;;
30173;SDS011;16985;50.814;8.530;2023-02-04T06:14:34;18.15;;;3.95;;
30173;SDS011;16985;50.814;8.530;2023-02-04T06:17:00;24.38;;;5.30;;
30173;SDS011;16985;50.814;8.530;2023-02-04T06:19:26;17.17;;;3.65;;
30173;SDS011;16985;50.814;8.530;2023-02-04T06:21:52;27.95;;;4.65;;
30173;SDS011;16985;50.814;8.530;2023-02-04T06:24:18;23.42;;;4.38;;
30173;SDS011;16985;50.814;8.530;2023-02-04T06:26:43;20.65;;;4.80;;
30173;SDS011;16985;50.814;8.530;2023-02-04T06:29:09;20.95;;;4.07;;
30173;SDS011;16985;50.814;8.530;2023-02-04T06:31:35;19.08;;;4.63;;
30173;SDS011;16985;50.814;8.530;2023-02-04T06:34:03;22.20;;;5.45;;
30173;SDS011;16985;50.814;8.530;2023-02-04T06:36:29;34.67;;;5.82;;
30173;SDS011;16985;50.814;8.530;2023-02-04T06:38:55;19.27;;;5.07;;
30173;SDS011;16985;50.814;8.530;2023-02-04T06:41:22;21.27;;;5.68;;
30173;SDS011;16985;50.814;8.530;2023-02-04T06:43:48;20.42;;;5.65;;
30173;SDS011;16985;50.814;8.530;2023-02-04T06:46:14;24.17;;;4.80;;
30173;SDS011;16985;50.814;8.530;2023-02-04T06:48:40;20.38;;;5.25;;
30173;SDS011;16985;50.814;8.530;2023-02-04T06:51:06;22.13;;;5.45;;
30173;SDS011;16985;50.814;8.530;2023-02-04T06:53:32;17.45;;;4.80;;
30173;SDS011;16985;50.814;8.530;2023-02-04T06:55:57;22.63;;;4.38;;
30173;SDS011;16985;50.814;8.530;2023-02-04T06:58:23;15.85;;;5.15;;
30173;SDS011;16985;50.814;8.530;2023-02-04T07:00:49;24.83;;;4.90;;
30173;SDS011;16985;50.814;8.530;2023-02-04T07:03:15;16.58;;;4.57;;
30173;SDS011;16985;50.814;8.530;2023-02-04T07:05:41;24.02;;;5.05;;
30173;SDS011;16985;50.814;8.530;2023-02-04T07:08:07;22.77;;;4.22;;
30173;SDS011;16985;50.814;8.530;2023-02-04T07:10:34;23.88;;;5.65;;
30173;SDS011;16985;50.814;8.530;2023-02-04T07:13:00;15.48;;;4.47;;
30173;SDS011;16985;50.814;8.530;2023-02-04T07:15:26;27.15;;;5.10;;
30173;SDS011;16985;50.814;8.530;2023-02-04T07:17:52;22.65;;;5.57;;
30173;SDS011;16985;50.814;8.530;2023-02-04T07:20:18;23.98;;;6.90;;
30173;SDS011;16985;50.814;8.530;2023-02-04T07:22:44;24.48;;;5.60;;
30173;SDS011;16985;50.814;8.530;2023-02-04T07:25:11;25.90;;;6.97;;
30173;SDS011;16985;50.814;8.530;2023-02-04T07:27:40;36.10;;;6.47;;
30173;SDS011;16985;50.814;8.530;2023-02-04T07:30:06;25.40;;;5.80;;
30173;SDS011;16985;50.814;8.530;2023-02-04T07:32:34;22.95;;;6.63;;
30173;SDS011;16985;50.814;8.530;2023-02-04T07:35:00;22.88;;;8.13;;
30173;SDS011;16985;50.814;8.530;2023-02-04T07:37:26;24.17;;;6.38;;
30173;SDS011;16985;50.814;8.530;2023-02-04T07:39:53;22.65;;;5.05;;
30173;SDS011;16985;50.814;8.530;2023-02-04T07:42:19;23.05;;;5.10;;
30173;SDS011;16985;50.814;8.530;2023-02-04T07:44:51;17.80;;;6.15;;
30173;SDS011;16985;50.814;8.530;2023-02-04T07:47:18;25.13;;;5.90;;
30173;SDS011;16985;50.814;8.530;2023-02-04T07:49:44;18.10;;;5.75;;
30173;SDS011;16985;50.814;8.530;2023-02-04T07:52:10;18.17;;;6.15;;
30173;SDS011;16985;50.814;8.530;2023-02-04T07:54:36;24.38;;;4.57;;
30173;SDS011;16985;50.814;8.530;2023-02-04T07:57:02;15.70;;;5.30;;
30173;SDS011;16985;50.814;8.530;2023-02-04T07:59:28;22.23;;;5.38;;
30173;SDS011;16985;50.814;8.530;2023-02-04T08:01:55;23.48;;;4.35;;
30173;SDS011;16985;50.814;8.530;2023-02-04T08:04:21;21.90;;;5.40;;
30173;SDS011;16985;50.814;8.530;2023-02-04T08:06:47;21.20;;;6.35;;
30173;SDS011;16985;50.814;8.530;2023-02-04T08:09:13;15.93;;;5.18;;
30173;SDS011;16985;50.814;8.530;2023-02-04T08:11:39;22.77;;;5.95;;
30173;SDS011;16985;50.814;8.530;2023-02-04T08:14:05;20.42;;;5.07;;
30173;SDS011;16985;50.814;8.530;2023-02-04T08:16:31;28.98;;;6.60;;
30173;SDS011;16985;50.814;8.530;2023-02-04T08:18:57;16.17;;;5.95;;
30173;SDS011;16985;50.814;8.530;2023-02-04T08:21:24;23.77;;;6.57;;
30173;SDS011;16985;50.814;8.530;2023-02-04T08:23:50;19.50;;;6.75;;
30173;SDS011;16985;50.814;8.530;2023-02-04T08:26:16;29.20;;;9.05;;
30173;SDS011;16985;50.814;8.530;2023-02-04T08:28:42;19.88;;;7.97;;
30173;SDS011;16985;50.814;8.530;2023-02-04T08:31:08;30.80;;;9.60;;
30173;SDS011;16985;50.814;8.530;2023-02-04T08:33:37;26.73;;;10.98;;
30173;SDS011;16985;50.814;8.530;2023-02-04T08:36:06;24.52;;;8.18;;
30173;SDS011;16985;50.814;8.530;2023-02-04T08:38:33;34.45;;;9.30;;
30173;SDS011;16985;50.814;8.530;2023-02-04T08:40:59;26.40;;;8.52;;
30173;SDS011;16985;50.814;8.530;2023-02-04T08:43:25;31.45;;;8.05;;
30173;SDS011;16985;50.814;8.530;2023-02-04T08:45:51;21.67;;;7.70;;
30173;SDS011;16985;50.814;8.530;2023-02-04T08:48:17;33.20;;;7.90;;
30173;SDS011;16985;50.814;8.530;2023-02-04T08:50:43;19.85;;;6.93;;
30173;SDS011;16985;50.814;8.530;2023-02-04T08:53:09;38.75;;;7.13;;
30173;SDS011;16985;50.814;8.530;2023-02-04T08:55:35;19.50;;;6.63;;
30173;SDS011;16985;50.814;8.530;2023-02-04T08:58:01;31.27;;;8.07;;
30173;SDS011;16985;50.814;8.530;2023-02-04T09:00:27;15.73;;;5.97;;
30173;SDS011;16985;50.814;8.530;2023-02-04T09:02:54;25.23;;;5.75;;
30173;SDS011;16985;50.814;8.530;2023-02-04T09:05:20;22.77;;;5.45;;
30173;SDS011;16985;50.814;8.530;2023-02-04T09:07:47;22.33;;;5.30;;
30173;SDS011;16985;50.814;8.530;2023-02-04T09:10:13;27.77;;;5.43;;
30173;SDS011;16985;50.814;8.530;2023-02-04T09:12:39;17.35;;;4.25;;
30173;SDS011;16985;50.814;8.530;2023-02-04T09:15:07;22.80;;;4.90;;
30173;SDS011;16985;50.814;8.530;2023-02-04T09:17:35;16.05;;;4.63;;
30173;SDS011;16985;50.814;8.530;2023-02-04T09:20:02;15.68;;;3.63;;
30173;SDS011;16985;50.814;8.530;2023-02-04T09:22:29;15.98;;;5.65;;
30173;SDS011;16985;50.814;8.530;2023-02-04T09:24:55;17.35;;;4.20;;
30173;SDS011;16985;50.814;8.530;2023-02-04T09:27:22;20.30;;;4.22;;
30173;SDS011;16985;50.814;8.530;2023-02-04T09:29:48;20.35;;;4.22;;
30173;SDS011;16985;50.814;8.530;2023-02-04T09:32:14;21.52;;;3.60;;
30173;SDS011;16985;50.814;8.530;2023-02-04T09:34:40;16.85;;;3.55;;
30173;SDS011;16985;50.814;8.530;2023-02-04T09:37:06;16.00;;;4.57;;
30173;SDS011;16985;50.814;8.530;2023-02-04T09:39:32;20.42;;;4.05;;
30173;SDS011;16985;50.814;8.530;2023-02-04T09:41:59;13.98;;;3.40;;
30173;SDS011;16985;50.814;8.530;2023-02-04T09:44:25;14.73;;;4.28;;
30173;SDS011;16985;50.814;8.530;2023-02-04T09:46:53;16.43;;;4.10;;
30173;SDS011;16985;50.814;8.530;2023-02-04T09:51:47;13.45;;;3.50;;
30173;SDS011;16985;50.814;8.530;2023-02-04T09:54:17;18.83;;;3.45;;
30173;SDS011;16985;50.814;8.530;2023-02-04T09:56:46;12.88;;;4.40;;
30173;SDS011;16985;50.814;8.530;2023-02-04T09:59:16;28.80;;;3.72;;
30173;SDS011;16985;50.814;8.530;2023-02-04T10:01:56;16.60;;;3.55;;
30173;SDS011;16985;50.814;8.530;2023-02-04T10:04:25;22.77;;;3.72;;
30173;SDS011;16985;50.814;8.530;2023-02-04T10:06:52;21.42;;;3.88;;
30173;SDS011;16985;50.814;8.530;2023-02-04T10:09:18;14.55;;;3.45;;
30173;SDS011;16985;50.814;8.530;2023-02-04T10:11:45;19.23;;;2.78;;
30173;SDS011;16985;50.814;8.530;2023-02-04T10:14:14;24.45;;;3.70;;
30173;SDS011;16985;50.814;8.530;2023-02-04T10:16:46;16.52;;;3.38;;
30173;SDS011;16985;50.814;8.530;2023-02-04T10:19:21;13.85;;;3.20;;
30173;SDS011;16985;50.814;8.530;2023-02-04T10:21:47;28.00;;;3.92;;
30173;SDS011;16985;50.814;8.530;2023-02-04T10:24:21;19.95;;;4.75;;
30173;SDS011;16985;50.814;8.530;2023-02-04T10:27:04;16.83;;;3.38;;
30173;SDS011;16985;50.814;8.530;2023-02-04T10:31:58;14.32;;;3.33;;
30173;SDS011;16985;50.814;8.530;2023-02-04T10:34:45;15.43;;;3.50;;
30173;SDS011;16985;50.814;8.530;2023-02-04T10:37:11;19.48;;;3.55;;
30173;SDS011;16985;50.814;8.530;2023-02-04T10:39:45;19.52;;;3.97;;
30173;SDS011;16985;50.814;8.530;2023-02-04T10:42:21;17.70;;;3.55;;
30173;SDS011;16985;50.814;8.530;2023-02-04T10:44:50;14.10;;;3.47;;
30173;SDS011;16985;50.814;8.530;2023-02-04T10:47:26;14.50;;;3.60;;
30173;SDS011;16985;50.814;8.530;2023-02-04T10:52:40;17.88;;;3.53;;
30173;SDS011;16985;50.814;8.530;2023-02-04T10:55:14;24.73;;;4.15;;
30173;SDS011;16985;50.814;8.530;2023-02-04T10:57:45;15.77;;;4.05;;
30173;SDS011;16985;50.814;8.530;2023-02-04T11:02:43;26.17;;;4.13;;
30173;SDS011;16985;50.814;8.530;2023-02-04T11:05:20;14.98;;;3.33;;
30173;SDS011;16985;50.814;8.530;2023-02-04T11:07:49;15.38;;;3.67;;
30173;SDS011;16985;50.814;8.530;2023-02-04T11:10:16;22.10;;;4.00;;
30173;SDS011;16985;50.814;8.530;2023-02-04T11:18:10;21.35;;;4.28;;
30173;SDS011;16985;50.814;8.530;2023-02-04T11:20:49;18.92;;;3.58;;
30173;SDS011;16985;50.814;8.530;2023-02-04T11:26:00;18.08;;;4.07;;
30173;SDS011;16985;50.814;8.530;2023-02-04T11:33:47;18.83;;;4.10;;
30173;SDS011;16985;50.814;8.530;2023-02-04T11:36:15;17.60;;;3.85;;
30173;SDS011;16985;50.814;8.530;2023-02-04T11:38:45;18.92;;;4.65;;
30173;SDS011;16985;50.814;8.530;2023-02-04T11:41:14;12.32;;;3.97;;
30173;SDS011;16985;50.814;8.530;2023-02-04T11:43:51;14.80;;;3.30;;
30173;SDS011;16985;50.814;8.530;2023-02-04T11:46:19;15.07;;;3.35;;
30173;SDS011;16985;50.814;8.530;2023-02-04T11:48:45;11.98;;;4.15;;
30173;SDS011;16985;50.814;8.530;2023-02-04T11:51:11;11.15;;;3.88;;
30173;SDS011;16985;50.814;8.530;2023-02-04T11:53:41;14.95;;;3.47;;
30173;SDS011;16985;50.814;8.530;2023-02-04T11:56:15;11.63;;;4.35;;
30173;SDS011;16985;50.814;8.530;2023-02-04T11:58:45;14.27;;;3.85;;
30173;SDS011;16985;50.814;8.530;2023-02-04T12:01:16;11.05;;;2.95;;
30173;SDS011;16985;50.814;8.530;2023-02-04T12:03:48;13.65;;;3.40;;
30173;SDS011;16985;50.814;8.530;2023-02-04T12:06:21;12.77;;;3.67;;
30173;SDS011;16985;50.814;8.530;2023-02-04T12:08:52;17.10;;;3.47;;
30173;SDS011;16985;50.814;8.530;2023-02-04T12:14:16;16.23;;;3.88;;
30173;SDS011;16985;50.814;8.530;2023-02-04T12:16:49;14.80;;;3.25;;
30173;SDS011;16985;50.814;8.530;2023-02-04T12:19:15;15.70;;;3.38;;
30173;SDS011;16985;50.814;8.530;2023-02-04T12:21:41;23.88;;;4.45;;
30173;SDS011;16985;50.814;8.530;2023-02-04T12:24:07;18.83;;;4.07;;
30173;SDS011;16985;50.814;8.530;2023-02-04T12:26:33;15.98;;;3.15;;
30173;SDS011;16985;50.814;8.530;2023-02-04T12:28:59;17.23;;;3.40;;
30173;SDS011;16985;50.814;8.530;2023-02-04T12:31:30;19.45;;;3.72;;
30173;SDS011;16985;50.814;8.530;2023-02-04T12:33:57;18.60;;;3.75;;
30173;SDS011;16985;50.814;8.530;2023-02-04T12:36:24;28.95;;;3.97;;
30173;SDS011;16985;50.814;8.530;2023-02-04T12:38:52;19.25;;;3.83;;
30173;SDS011;16985;50.814;8.530;2023-02-04T12:41:18;28.42;;;4.10;;
30173;SDS011;16985;50.814;8.530;2023-02-04T12:43:44;21.80;;;4.13;;
30173;SDS011;16985;50.814;8.530;2023-02-04T12:46:10;18.30;;;4.38;;
30173;SDS011;16985;50.814;8.530;2023-02-04T12:48:36;16.85;;;4.22;;
30173;SDS011;16985;50.814;8.530;2023-02-04T12:51:05;13.43;;;4.13;;
30173;SDS011;16985;50.814;8.530;2023-02-04T12:53:32;17.75;;;3.53;;
30173;SDS011;16985;50.814;8.530;2023-02-04T12:55:58;13.60;;;3.80;;
30173;SDS011;16985;50.814;8.530;2023-02-04T12:58:24;21.17;;;2.97;;
30173;SDS011;16985;50.814;8.530;2023-02-04T13:00:50;10.35;;;3.60;;
30173;SDS011;16985;50.814;8.530;2023-02-04T13:03:16;14.98;;;2.70;;
30173;SDS011;16985;50.814;8.530;2023-02-04T13:05:42;27.35;;;3.60;;
30173;SDS011;16985;50.814;8.530;2023-02-04T13:08:07;15.68;;;3.70;;
30173;SDS011;16985;50.814;8.530;2023-02-04T13:10:33;14.63;;;3.03;;
30173;SDS011;16985;50.814;8.530;2023-02-04T13:12:59;13.23;;;3.78;;
30173;SDS011;16985;50.814;8.530;2023-02-04T13:15:25;12.68;;;3.20;;
30173;SDS011;16985;50.814;8.530;2023-02-04T13:17:51;8.35;;;2.75;;
30173;SDS011;16985;50.814;8.530;2023-02-04T13:20:17;18.52;;;4.25;;
30173;SDS011;16985;50.814;8.530;2023-02-04T13:22:43;13.60;;;3.20;;
30173;SDS011;16985;50.814;8.530;2023-02-04T13:25:09;9.57;;;2.70;;
30173;SDS011;16985;50.814;8.530;2023-02-04T13:27:36;16.73;;;2.60;;
30173;SDS011;16985;50.814;8.530;2023-02-04T13:30:05;15.18;;;3.00;;
30173;SDS011;16985;50.814;8.530;2023-02-04T13:32:35;14.95;;;3.22;;
30173;SDS011;16985;50.814;8.530;2023-02-04T13:35:01;10.38;;;3.17;;
30173;SDS011;16985;50.814;8.530;2023-02-04T13:37:27;13.88;;;3.05;;
30173;SDS011;16985;50.814;8.530;2023-02-04T13:39:53;15.30;;;5.03;;
30173;SDS011;16985;50.814;8.530;2023-02-04T13:42:19;14.35;;;2.33;;
30173;SDS011;16985;50.814;8.530;2023-02-04T13:44:45;11.10;;;3.15;;
30173;SDS011;16985;50.814;8.530;2023-02-04T13:47:11;11.18;;;3.20;;
30173;SDS011;16985;50.814;8.530;2023-02-04T13:49:37;9.75;;;2.70;;
30173;SDS011;16985;50.814;8.530;2023-02-04T13:52:02;17.83;;;3.88;;
30173;SDS011;16985;50.814;8.530;2023-02-04T13:54:28;14.48;;;3.50;;
30173;SDS011;16985;50.814;8.530;2023-02-04T13:56:54;10.25;;;2.30;;
30173;SDS011;16985;50.814;8.530;2023-02-04T13:59:20;20.10;;;2.60;;
30173;SDS011;16985;50.814;8.530;2023-02-04T14:01:46;10.68;;;2.60;;
30173;SDS011;16985;50.814;8.530;2023-02-04T14:04:15;19.65;;;3.38;;
30173;SDS011;16985;50.814;8.530;2023-02-04T14:06:40;15.43;;;4.18;;
30173;SDS011;16985;50.814;8.530;2023-02-04T14:11:36;14.75;;;2.80;;
30173;SDS011;16985;50.814;8.530;2023-02-04T14:14:03;10.95;;;2.83;;
30173;SDS011;16985;50.814;8.530;2023-02-04T14:16:29;16.38;;;2.83;;
30173;SDS011;16985;50.814;8.530;2023-02-04T14:18:55;18.38;;;3.00;;
30173;SDS011;16985;50.814;8.530;2023-02-04T14:21:21;14.82;;;2.58;;
30173;SDS011;16985;50.814;8.530;2023-02-04T14:23:47;17.08;;;2.60;;
30173;SDS011;16985;50.814;8.530;2023-02-04T14:26:13;16.15;;;2.72;;
30173;SDS011;16985;50.814;8.530;2023-02-04T14:28:38;16.73;;;3.50;;
30173;SDS011;16985;50.814;8.530;2023-02-04T14:31:04;12.18;;;3.28;;
30173;SDS011;16985;50.814;8.530;2023-02-04T14:33:30;8.93;;;2.65;;
30173;SDS011;16985;50.814;8.530;2023-02-04T14:35:56;20.80;;;2.97;;
30173;SDS011;16985;50.814;8.530;2023-02-04T14:38:22;6.82;;;2.00;;
30173;SDS011;16985;50.814;8.530;2023-02-04T14:40:47;13.52;;;2.40;;
30173;SDS011;16985;50.814;8.530;2023-02-04T14:43:13;17.67;;;2.60;;
30173;SDS011;16985;50.814;8.530;2023-02-04T14:45:39;11.55;;;2.72;;
30173;SDS011;16985;50.814;8.530;2023-02-04T14:48:05;14.73;;;3.35;;
30173;SDS011;16985;50.814;8.530;2023-02-04T14:50:32;11.48;;;3.22;;
30173;SDS011;16985;50.814;8.530;2023-02-04T14:52:58;5.80;;;2.53;;
30173;SDS011;16985;50.814;8.530;2023-02-04T14:55:24;15.73;;;3.08;;
30173;SDS011;16985;50.814;8.530;2023-02-04T14:57:51;24.10;;;2.88;;
30173;SDS011;16985;50.814;8.530;2023-02-04T15:00:18;11.07;;;2.17;;
30173;SDS011;16985;50.814;8.530;2023-02-04T15:02:46;8.02;;;2.47;;
30173;SDS011;16985;50.814;8.530;2023-02-04T15:05:12;14.18;;;3.53;;